Time;durP1;ratioP1;P1;durP2;ratioP2;P2;SDS_P1;SDS_P2;PMS_P1;PMS_P2;Temp;Humidity;BMP_temperature;BMP_pressure;BME280_temperature;BME280_humidity;BME280_pressure;Samples;Min_cycle;Max_cycle;Signal;HPM_P1;HPM_P2
2022/10/16 00:00:37;;;;;;;10.65;1.98;;;13.30;99.90;;;;;;4943162;28;20039;-62
2022/10/16 00:03:04;;;;;;;7.70;2.75;;;12.90;99.90;;;;;;4949557;28;20089;-61
2022/10/16 00:05:29;;;;;;;6.82;1.70;;;12.90;99.90;;;;;;4942648;28;20121;-62
2022/10/16 00:07:55;;;;;;;6.53;1.90;;;12.90;99.90;;;;;;4930185;28;20578;-61
2022/10/16 00:10:22;;;;;;;7.57;1.80;;;12.80;99.90;;;;;;4943559;28;20043;-62
2022/10/16 00:12:48;;;;;;;5.93;1.83;;;12.80;99.90;;;;;;4943705;28;20048;-61
2022/10/16 00:15:14;;;;;;;8.80;1.98;;;12.80;99.90;;;;;;4945367;28;20031;-62
2022/10/16 00:17:40;;;;;;;6.80;1.48;;;12.80;99.90;;;;;;4966904;28;20042;-61
2022/10/16 00:20:06;;;;;;;7.13;2.13;;;12.80;99.90;;;;;;4946339;28;20039;-62
2022/10/16 00:22:32;;;;;;;6.57;1.52;;;12.70;99.90;;;;;;4966970;28;20133;-61
2022/10/16 00:24:58;;;;;;;7.07;1.80;;;12.70;99.90;;;;;;4954302;28;20062;-61
2022/10/16 00:27:24;;;;;;;6.88;1.70;;;12.70;99.90;;;;;;4937044;28;20043;-62
2022/10/16 00:29:51;;;;;;;7.55;2.30;;;12.70;99.90;;;;;;4946133;28;20073;-62
2022/10/16 00:32:17;;;;;;;7.63;1.80;;;12.70;99.90;;;;;;4930618;28;20524;-61
2022/10/16 00:34:43;;;;;;;10.75;2.20;;;12.70;99.90;;;;;;4944538;28;20055;-61
2022/10/16 00:37:09;;;;;;;8.63;2.25;;;12.70;99.90;;;;;;4942532;28;20039;-62
2022/10/16 00:39:35;;;;;;;9.02;1.85;;;12.70;99.90;;;;;;4929575;28;20045;-61
2022/10/16 00:42:01;;;;;;;7.70;2.17;;;12.70;99.90;;;;;;4949553;28;20408;-61
2022/10/16 00:44:44;;;;;;;5.57;1.95;;;12.70;99.90;;;;;;4946488;28;20057;-61
2022/10/16 00:47:13;;;;;;;8.55;2.10;;;12.70;99.90;;;;;;4940846;28;20035;-62
2022/10/16 00:49:39;;;;;;;5.15;2.13;;;12.70;99.90;;;;;;4945541;28;20577;-61
2022/10/16 00:52:05;;;;;;;4.95;1.08;;;12.70;99.90;;;;;;4943362;28;20037;-62
2022/10/16 00:54:32;;;;;;;13.20;2.55;;;12.70;99.90;;;;;;4942598;28;20053;-61
2022/10/16 00:57:01;;;;;;;5.68;1.35;;;12.70;99.90;;;;;;4941981;28;20039;-61
2022/10/16 00:59:30;;;;;;;5.68;1.50;;;12.70;99.90;;;;;;4952400;28;20101;-61
2022/10/16 01:01:57;;;;;;;7.15;1.42;;;12.70;99.90;;;;;;4937684;28;20043;-61
2022/10/16 01:04:25;;;;;;;4.70;1.52;;;12.70;99.90;;;;;;4942713;28;20035;-61
2022/10/16 01:07:02;;;;;;;5.90;2.13;;;12.70;99.90;;;;;;4940773;28;20105;-61
2022/10/16 01:09:40;;;;;;;6.15;1.50;;;12.80;99.90;;;;;;4948757;28;20125;-61
2022/10/16 01:12:23;;;;;;;8.13;1.42;;;12.80;99.90;;;;;;4944649;28;20047;-61
2022/10/16 01:14:57;;;;;;;4.70;1.75;;;12.80;99.90;;;;;;4948656;28;20094;-61
2022/10/16 01:17:34;;;;;;;;;;;12.80;99.90;;;;;;4945306;28;20043;-62
2022/10/16 01:20:11;;;;;;;5.47;1.90;;;12.80;99.90;;;;;;4943465;28;20589;-62
2022/10/16 01:23:13;;;;;;;9.50;1.45;;;12.90;99.90;;;;;;4945460;28;20051;-62
2022/10/16 01:25:45;;;;;;;6.55;1.60;;;12.90;99.90;;;;;;4944847;28;20051;-62
2022/10/16 01:28:13;;;;;;;4.88;1.30;;;12.90;99.90;;;;;;4946273;28;20042;-62
2022/10/16 01:30:41;;;;;;;11.30;2.05;;;12.90;99.90;;;;;;4944949;28;20049;-62
2022/10/16 01:33:33;;;;;;;6.18;1.10;;;12.90;99.90;;;;;;4943399;28;20050;-62
2022/10/16 01:36:07;;;;;;;6.40;1.63;;;13.00;99.90;;;;;;4931619;28;20055;-61
2022/10/16 01:38:41;;;;;;;5.32;1.23;;;13.00;99.90;;;;;;4932688;28;20093;-62
2022/10/16 01:41:17;;;;;;;6.07;1.50;;;13.00;99.90;;;;;;4934330;28;20047;-61
2022/10/16 01:43:50;;;;;;;4.47;1.23;;;13.00;99.90;;;;;;4942629;28;20055;-62
2022/10/16 01:46:19;;;;;;;6.30;1.45;;;13.00;99.90;;;;;;4945007;28;22881;-61
2022/10/16 01:48:48;;;;;;;7.20;1.50;;;13.00;99.90;;;;;;4943318;28;20045;-61
2022/10/16 01:51:15;;;;;;;5.72;1.65;;;13.00;99.90;;;;;;4944914;28;20093;-61
2022/10/16 01:53:47;;;;;;;5.10;1.65;;;13.10;99.90;;;;;;4942719;28;20145;-61
2022/10/16 01:56:16;;;;;;;6.30;1.35;;;13.10;99.90;;;;;;4941417;28;20114;-61
2022/10/16 01:58:47;;;;;;;8.52;1.88;;;13.10;99.90;;;;;;4945454;28;20107;-61
2022/10/16 02:01:16;;;;;;;4.20;1.58;;;13.10;99.90;;;;;;4944633;28;20141;-62
2022/10/16 02:03:44;;;;;;;4.88;1.58;;;13.10;99.90;;;;;;4938995;28;20070;-61
2022/10/16 02:06:10;;;;;;;8.73;1.80;;;13.10;99.90;;;;;;4957646;28;20042;-62
2022/10/16 02:08:36;;;;;;;5.15;1.50;;;13.10;99.90;;;;;;4957349;28;20042;-61
2022/10/16 02:11:02;;;;;;;7.07;1.48;;;13.10;99.90;;;;;;4940902;28;20030;-61
2022/10/16 02:13:31;;;;;;;4.85;1.67;;;13.10;99.90;;;;;;4963535;28;20058;-62
2022/10/16 02:15:57;;;;;;;5.38;2.03;;;13.10;99.90;;;;;;4971430;28;20077;-61
2022/10/16 02:18:22;;;;;;;6.38;1.92;;;13.10;99.90;;;;;;4968318;28;20112;-61
2022/10/16 02:20:56;;;;;;;9.10;1.75;;;13.10;99.90;;;;;;4976891;28;20504;-62
2022/10/16 02:23:46;;;;;;;5.35;1.83;;;13.10;99.90;;;;;;4986741;28;20403;-61
2022/10/16 02:26:15;;;;;;;7.88;1.80;;;13.10;99.90;;;;;;4986289;28;20053;-61
2022/10/16 02:28:52;;;;;;;7.05;1.90;;;13.10;99.90;;;;;;4970555;28;20121;-61
2022/10/16 02:31:25;;;;;;;4.78;1.90;;;13.10;99.90;;;;;;4975808;28;20049;-61
2022/10/16 02:33:52;;;;;;;6.13;2.00;;;13.10;99.90;;;;;;4978524;28;20408;-62
2022/10/16 02:36:18;;;;;;;6.13;2.17;;;13.10;99.90;;;;;;4966056;28;20054;-61
2022/10/16 02:38:44;;;;;;;5.78;2.38;;;13.10;99.90;;;;;;4970433;28;20255;-61
2022/10/16 02:41:10;;;;;;;4.15;1.85;;;13.10;99.90;;;;;;4968307;28;20093;-61
2022/10/16 02:43:35;;;;;;;7.28;1.95;;;13.10;99.90;;;;;;4972041;28;20132;-61
2022/10/16 02:46:01;;;;;;;9.73;2.00;;;13.10;99.90;;;;;;4978678;28;20117;-61
2022/10/16 02:48:27;;;;;;;6.97;2.13;;;13.10;99.90;;;;;;4957640;28;20088;-61
2022/10/16 02:50:53;;;;;;;5.93;1.83;;;13.00;99.90;;;;;;4969376;28;20536;-61
2022/10/16 02:53:18;;;;;;;6.53;1.60;;;13.00;99.90;;;;;;4972788;28;20147;-61
2022/10/16 02:55:44;;;;;;;4.78;2.35;;;13.00;99.90;;;;;;4988758;28;20125;-61
2022/10/16 02:58:10;;;;;;;6.10;1.80;;;13.00;99.90;;;;;;4967374;28;20532;-62
2022/10/16 03:00:36;;;;;;;6.03;2.05;;;13.00;99.90;;;;;;4972536;28;20470;-61
2022/10/16 03:03:01;;;;;;;5.38;1.65;;;13.00;99.90;;;;;;4974876;28;20047;-61
2022/10/16 03:05:27;;;;;;;4.53;1.80;;;12.90;99.90;;;;;;4982759;28;20394;-61
2022/10/16 03:07:53;;;;;;;4.88;1.90;;;13.00;99.90;;;;;;4981577;28;20109;-61
2022/10/16 03:10:18;;;;;;;6.00;2.08;;;12.90;99.90;;;;;;4962592;28;20039;-61
2022/10/16 03:12:44;;;;;;;3.05;1.63;;;12.90;99.90;;;;;;4960572;28;20513;-61
2022/10/16 03:15:10;;;;;;;7.22;1.60;;;12.90;99.90;;;;;;4942615;28;20051;-61
2022/10/16 03:17:36;;;;;;;4.20;1.33;;;12.90;99.90;;;;;;4940782;28;20122;-61
2022/10/16 03:20:02;;;;;;;6.45;2.00;;;12.80;99.90;;;;;;4949224;28;20122;-62
2022/10/16 03:22:28;;;;;;;4.70;1.60;;;12.80;99.90;;;;;;4945885;28;20531;-61
2022/10/16 03:24:54;;;;;;;6.72;1.85;;;12.80;99.90;;;;;;4949167;28;20125;-62
2022/10/16 03:27:20;;;;;;;2.60;1.60;;;12.90;99.90;;;;;;4939192;28;21345;-61
2022/10/16 03:29:46;;;;;;;4.57;1.60;;;12.90;99.90;;;;;;4928696;28;20410;-61
2022/10/16 03:32:11;;;;;;;3.85;1.27;;;12.90;99.90;;;;;;4947550;28;20039;-61
2022/10/16 03:34:37;;;;;;;7.88;1.50;;;12.90;99.90;;;;;;4924646;28;20105;-61
2022/10/16 03:37:03;;;;;;;3.85;1.38;;;12.90;99.90;;;;;;4943152;28;20043;-61
2022/10/16 03:39:28;;;;;;;5.13;1.70;;;12.90;99.90;;;;;;4944875;28;20085;-62
2022/10/16 03:41:54;;;;;;;3.17;1.38;;;12.90;99.90;;;;;;4948140;28;20130;-61
2022/10/16 03:44:20;;;;;;;3.08;1.30;;;12.90;99.90;;;;;;4938819;28;20083;-62
2022/10/16 03:46:45;;;;;;;5.05;1.42;;;12.90;99.90;;;;;;4944088;28;20102;-62
2022/10/16 03:49:11;;;;;;;3.00;1.27;;;12.90;99.90;;;;;;4942018;28;20043;-62
2022/10/16 03:51:37;;;;;;;3.05;1.30;;;12.90;99.90;;;;;;4942213;28;20078;-62
2022/10/16 03:54:03;;;;;;;4.55;1.52;;;12.90;99.90;;;;;;4907615;28;20053;-61
2022/10/16 03:56:28;;;;;;;4.85;1.27;;;12.80;99.90;;;;;;4943914;28;20469;-62
2022/10/16 03:58:54;;;;;;;3.50;1.30;;;12.90;99.90;;;;;;4913403;28;20089;-62
2022/10/16 04:01:20;;;;;;;5.18;1.98;;;12.80;99.90;;;;;;4950293;28;20460;-61
2022/10/16 04:03:45;;;;;;;3.95;1.30;;;12.90;99.90;;;;;;4928796;28;20043;-61
2022/10/16 04:06:11;;;;;;;3.92;1.42;;;12.80;99.90;;;;;;4948254;28;20050;-62
2022/10/16 04:08:38;;;;;;;2.90;1.00;;;12.90;99.90;;;;;;4943823;28;20538;-62
2022/10/16 04:11:04;;;;;;;5.40;1.50;;;12.90;99.90;;;;;;4942973;28;20035;-62
2022/10/16 04:13:30;;;;;;;2.70;1.40;;;12.90;99.90;;;;;;4937423;28;20074;-62
2022/10/16 04:15:56;;;;;;;5.15;1.45;;;12.90;99.90;;;;;;4982277;28;20636;-62
2022/10/16 04:18:22;;;;;;;5.18;1.60;;;12.90;99.90;;;;;;4981072;28;20038;-61
2022/10/16 04:20:47;;;;;;;3.95;1.55;;;13.00;99.90;;;;;;4984921;28;20049;-62
2022/10/16 04:23:13;;;;;;;5.05;1.40;;;13.00;99.90;;;;;;4990961;28;20056;-62
2022/10/16 04:25:38;;;;;;;6.68;1.63;;;13.00;99.90;;;;;;5000890;28;20042;-62
2022/10/16 04:28:04;;;;;;;6.43;1.60;;;13.00;99.90;;;;;;4966663;28;20494;-62
2022/10/16 04:30:30;;;;;;;4.90;1.30;;;13.00;99.90;;;;;;4963164;28;20071;-62
2022/10/16 04:32:56;;;;;;;5.88;1.50;;;13.10;99.90;;;;;;4968250;28;20395;-62
2022/10/16 04:35:22;;;;;;;5.38;1.60;;;13.10;99.90;;;;;;4972063;28;20389;-61
2022/10/16 04:37:48;;;;;;;6.63;1.48;;;13.10;99.90;;;;;;4962792;28;20365;-62
2022/10/16 04:40:14;;;;;;;4.47;1.02;;;13.10;99.90;;;;;;4969316;28;20046;-62
2022/10/16 04:42:40;;;;;;;4.38;1.27;;;13.10;99.90;;;;;;4971447;28;20078;-62
2022/10/16 04:45:07;;;;;;;3.90;1.20;;;13.10;99.90;;;;;;4967164;28;20521;-61
2022/10/16 04:47:33;;;;;;;2.33;0.90;;;13.20;99.90;;;;;;4975105;28;20055;-62
2022/10/16 04:50:02;;;;;;;2.95;1.00;;;13.20;99.90;;;;;;4977505;28;20038;-62
2022/10/16 04:52:28;;;;;;;4.70;1.33;;;13.20;99.90;;;;;;4963161;28;20087;-62
2022/10/16 04:54:55;;;;;;;4.15;1.30;;;13.20;99.90;;;;;;4967819;28;20042;-62
2022/10/16 04:57:20;;;;;;;3.80;1.60;;;13.10;99.90;;;;;;4962840;28;20086;-62
2022/10/16 04:59:46;;;;;;;6.43;1.55;;;13.20;99.90;;;;;;4979053;28;20062;-62
2022/10/16 05:02:12;;;;;;;4.20;2.00;;;13.20;99.90;;;;;;4970763;28;20078;-62
2022/10/16 05:04:38;;;;;;;7.95;1.40;;;13.20;99.90;;;;;;4994745;23;20528;-59
2022/10/16 05:07:03;;;;;;;4.63;1.45;;;13.20;99.90;;;;;;5001666;28;20197;-62
2022/10/16 05:09:29;;;;;;;3.53;1.70;;;13.20;99.90;;;;;;5010496;28;20045;-62
2022/10/16 05:11:54;;;;;;;4.50;1.50;;;13.20;99.90;;;;;;5011351;28;20034;-62
2022/10/16 05:14:20;;;;;;;2.88;1.70;;;13.20;99.90;;;;;;5005635;28;20396;-60
2022/10/16 05:16:47;;;;;;;5.13;1.63;;;13.20;99.90;;;;;;5006451;28;20041;-63
2022/10/16 05:19:13;;;;;;;6.03;1.60;;;13.20;99.90;;;;;;5006727;28;20039;-61
2022/10/16 05:21:39;;;;;;;5.35;1.88;;;13.20;99.90;;;;;;5005248;28;20076;-60
2022/10/16 05:24:04;;;;;;;6.30;1.40;;;13.20;99.90;;;;;;4986692;28;20045;-62
2022/10/16 05:26:30;;;;;;;5.68;1.85;;;13.20;99.90;;;;;;5001082;28;20040;-61
2022/10/16 05:28:56;;;;;;;4.63;1.23;;;13.20;99.90;;;;;;4991854;28;21984;-61
2022/10/16 05:31:21;;;;;;;4.85;2.00;;;13.20;99.90;;;;;;5001759;28;20034;-61
2022/10/16 05:33:47;;;;;;;6.45;1.75;;;13.20;99.90;;;;;;5001874;28;20120;-62
2022/10/16 05:36:13;;;;;;;4.22;1.83;;;13.20;99.90;;;;;;5009412;28;20069;-62
2022/10/16 05:38:39;;;;;;;7.03;1.80;;;13.20;99.90;;;;;;5007089;28;20463;-62
2022/10/16 05:41:05;;;;;;;8.07;2.33;;;13.20;99.90;;;;;;4969755;28;20733;-62
2022/10/16 05:43:32;;;;;;;6.32;1.80;;;13.20;99.90;;;;;;5009486;28;20034;-62
2022/10/16 05:46:01;;;;;;;5.70;1.88;;;13.20;99.90;;;;;;5003947;28;20148;-61
2022/10/16 05:48:27;;;;;;;7.15;1.90;;;13.10;99.90;;;;;;5009355;28;20069;-62
2022/10/16 05:51:08;;;;;;;5.78;2.15;;;13.10;99.90;;;;;;5003254;28;20068;-61
2022/10/16 05:53:36;;;;;;;5.20;1.90;;;13.10;99.90;;;;;;5009631;28;20436;-62
2022/10/16 05:56:03;;;;;;;6.32;1.85;;;13.10;99.90;;;;;;4992782;28;20563;-62
2022/10/16 05:58:35;;;;;;;4.18;1.98;;;13.10;99.90;;;;;;5008297;28;20034;-62
2022/10/16 06:01:06;;;;;;;6.47;2.40;;;13.10;99.90;;;;;;4985977;28;20450;-62
2022/10/16 06:03:33;;;;;;;6.80;1.95;;;13.10;99.90;;;;;;5007033;28;20070;-62
2022/10/16 06:05:59;;;;;;;8.48;2.38;;;13.10;99.90;;;;;;4990953;28;20670;-62
2022/10/16 06:08:25;;;;;;;4.82;2.22;;;13.10;99.90;;;;;;4985152;28;20512;-63
2022/10/16 06:11:07;;;;;;;12.20;2.40;;;13.20;99.90;;;;;;5004096;28;20072;-62
2022/10/16 06:13:33;;;;;;;8.00;2.00;;;13.20;99.90;;;;;;5005102;28;20552;-62
2022/10/16 06:16:00;;;;;;;5.50;2.00;;;13.20;99.90;;;;;;5007582;28;20038;-62
2022/10/16 06:18:28;;;;;;;9.27;2.42;;;13.20;99.90;;;;;;5008675;28;20076;-62
2022/10/16 06:20:55;;;;;;;9.35;3.40;;;13.20;99.90;;;;;;4994444;28;20034;-61
2022/10/16 06:23:21;;;;;;;9.32;1.98;;;13.20;99.90;;;;;;5008272;28;20069;-62
2022/10/16 06:25:46;;;;;;;4.15;1.92;;;13.20;99.90;;;;;;4978243;28;20155;-64
2022/10/16 06:28:14;;;;;;;10.60;2.50;;;13.30;99.90;;;;;;5003857;28;20034;-62
2022/10/16 06:30:40;;;;;;;8.73;2.20;;;13.20;99.90;;;;;;5001096;28;20069;-62
2022/10/16 06:33:05;;;;;;;7.22;1.85;;;13.30;99.90;;;;;;4985698;28;20050;-62
2022/10/16 06:35:31;;;;;;;6.10;1.95;;;13.30;99.90;;;;;;4989528;28;20054;-62
2022/10/16 06:37:58;;;;;;;8.65;2.63;;;13.30;99.90;;;;;;4987265;28;20415;-62
2022/10/16 06:40:23;;;;;;;6.40;1.70;;;13.30;99.90;;;;;;5000500;28;20045;-62
2022/10/16 06:42:50;;;;;;;8.55;2.08;;;13.30;99.90;;;;;;5004430;28;20045;-62
2022/10/16 06:45:15;;;;;;;6.78;1.70;;;13.40;99.90;;;;;;4999814;28;20493;-60
2022/10/16 06:47:41;;;;;;;4.10;1.60;;;13.40;99.90;;;;;;4998585;28;20084;-60
2022/10/16 06:50:07;;;;;;;6.68;2.42;;;13.40;99.90;;;;;;4999504;28;20042;-61
2022/10/16 06:52:34;;;;;;;7.47;1.90;;;13.40;99.90;;;;;;4982681;28;20030;-60
2022/10/16 06:55:06;;;;;;;3.88;1.85;;;13.50;99.90;;;;;;4999970;28;20041;-62
2022/10/16 06:57:32;;;;;;;8.68;1.77;;;13.50;99.90;;;;;;4981113;28;20567;-61
2022/10/16 06:59:57;;;;;;;11.98;2.30;;;13.50;99.90;;;;;;5001628;28;20049;-61
2022/10/16 07:02:23;;;;;;;7.03;1.80;;;13.50;99.90;;;;;;4982912;28;20046;-60
2022/10/16 07:04:49;;;;;;;11.70;2.88;;;13.40;99.90;;;;;;4984492;28;20516;-61
2022/10/16 07:07:14;;;;;;;6.57;1.95;;;13.40;99.90;;;;;;4999885;28;20037;-62
2022/10/16 07:09:40;;;;;;;5.03;1.50;;;13.40;99.90;;;;;;5002560;28;20045;-62
2022/10/16 07:12:06;;;;;;;6.28;2.28;;;13.50;99.90;;;;;;5006192;28;20113;-62
2022/10/16 07:14:32;;;;;;;5.88;1.63;;;13.50;99.90;;;;;;5005242;28;20045;-60
2022/10/16 07:16:57;;;;;;;6.78;2.25;;;13.50;99.90;;;;;;4995238;28;20092;-62
2022/10/16 07:19:25;;;;;;;3.97;1.50;;;13.50;99.90;;;;;;5007646;28;20464;-62
2022/10/16 07:21:50;;;;;;;9.20;1.65;;;13.50;99.90;;;;;;5009870;28;20088;-60
2022/10/16 07:24:17;;;;;;;7.05;2.33;;;13.50;99.90;;;;;;5004223;28;20092;-62
2022/10/16 07:26:45;;;;;;;7.43;2.20;;;13.50;99.90;;;;;;5003472;28;20429;-61
2022/10/16 07:29:17;;;;;;;9.65;2.95;;;13.50;99.90;;;;;;4970299;28;20045;-61
2022/10/16 07:31:44;;;;;;;7.05;1.98;;;13.40;99.90;;;;;;5004162;28;20124;-60
2022/10/16 07:34:11;;;;;;;6.28;2.63;;;13.40;99.90;;;;;;4992791;28;20114;-62
2022/10/16 07:36:37;;;;;;;8.00;2.22;;;13.40;99.90;;;;;;5006648;28;20042;-62
2022/10/16 07:39:03;;;;;;;5.85;2.28;;;13.40;99.90;;;;;;5004632;28;20061;-62
2022/10/16 07:41:29;;;;;;;6.72;1.80;;;13.40;99.90;;;;;;5004023;28;20038;-62
2022/10/16 07:43:59;;;;;;;6.55;2.25;;;13.50;99.90;;;;;;5004091;28;20396;-62
2022/10/16 07:46:26;;;;;;;7.65;2.78;;;13.50;99.90;;;;;;5003841;28;20084;-62
2022/10/16 07:48:53;;;;;;;10.10;2.88;;;13.50;99.90;;;;;;5006428;28;20568;-62
2022/10/16 07:51:22;;;;;;;8.88;2.90;;;13.50;99.90;;;;;;5006819;28;20038;-60
2022/10/16 07:53:48;;;;;;;7.95;2.75;;;13.60;99.90;;;;;;4972706;28;20052;-62
2022/10/16 07:56:15;;;;;;;8.80;2.60;;;13.60;99.90;;;;;;4976123;28;20289;-60
2022/10/16 07:58:41;;;;;;;8.55;2.20;;;13.60;99.90;;;;;;5006616;28;20501;-59
2022/10/16 08:01:13;;;;;;;5.97;2.33;;;13.70;99.90;;;;;;5006764;28;20041;-60
2022/10/16 08:03:41;;;;;;;5.95;2.80;;;13.70;99.90;;;;;;5005960;28;20080;-62
2022/10/16 08:06:07;;;;;;;8.43;2.13;;;13.80;99.90;;;;;;4989671;28;20069;-62
2022/10/16 08:08:33;;;;;;;8.88;2.15;;;13.80;99.90;;;;;;5006366;28;20100;-61
2022/10/16 08:10:59;;;;;;;6.47;1.83;;;13.90;99.90;;;;;;5006395;28;20064;-62
2022/10/16 08:13:26;;;;;;;5.43;1.88;;;13.90;99.90;;;;;;4969397;28;20073;-62
2022/10/16 08:15:53;;;;;;;7.53;1.70;;;13.90;99.90;;;;;;5004090;28;20128;-62
2022/10/16 08:18:19;;;;;;;6.60;1.42;;;13.90;99.90;;;;;;5007027;28;20046;-62
2022/10/16 08:20:45;;;;;;;9.55;2.17;;;13.90;99.90;;;;;;4995477;28;20037;-62
2022/10/16 08:23:13;;;;;;;6.60;1.85;;;13.90;99.90;;;;;;5005892;28;20038;-61
2022/10/16 08:25:40;;;;;;;5.15;1.80;;;14.00;99.90;;;;;;4981330;28;20042;-62
2022/10/16 08:28:07;;;;;;;7.80;2.08;;;14.00;99.90;;;;;;5000009;28;20029;-61
2022/10/16 08:30:33;;;;;;;6.18;2.05;;;14.00;99.90;;;;;;5003650;28;20096;-61
2022/10/16 08:33:00;;;;;;;5.55;2.42;;;14.00;99.90;;;;;;5005754;28;20038;-61
2022/10/16 08:35:26;;;;;;;5.18;1.80;;;14.00;99.90;;;;;;5000457;28;20129;-61
2022/10/16 08:37:51;;;;;;;7.82;2.63;;;13.90;99.90;;;;;;5004312;28;20160;-61
2022/10/16 08:40:24;;;;;;;10.13;2.92;;;13.90;99.90;;;;;;4982622;28;20042;-61
2022/10/16 08:43:11;;;;;;;10.00;2.75;;;13.90;99.90;;;;;;4967187;28;20141;-61
2022/10/16 08:45:49;;;;;;;7.30;2.10;;;14.00;99.90;;;;;;4996453;28;20049;-60
2022/10/16 08:48:19;;;;;;;7.78;2.90;;;14.10;99.90;;;;;;4991124;28;20135;-62
2022/10/16 08:50:47;;;;;;;9.65;2.38;;;14.10;99.90;;;;;;4995191;28;20077;-61
2022/10/16 08:53:19;;;;;;;6.30;2.50;;;14.10;99.90;;;;;;4993186;28;20040;-62
2022/10/16 08:55:51;;;;;;;8.90;2.65;;;14.20;99.90;;;;;;4999372;28;20121;-59
2022/10/16 08:58:20;;;;;;;10.07;3.15;;;14.40;99.90;;;;;;4980069;28;20045;-59
2022/10/16 09:00:53;;;;;;;8.25;2.60;;;14.50;99.90;;;;;;4996769;28;20310;-59
2022/10/16 09:03:27;;;;;;;9.15;2.40;;;14.70;99.90;;;;;;4994901;28;20050;-61
2022/10/16 09:06:21;;;;;;;7.43;2.25;;;14.80;99.90;;;;;;4987788;28;20077;-62
2022/10/16 09:09:06;;;;;;;8.77;2.65;;;14.90;99.90;;;;;;5000166;28;20485;-61
2022/10/16 09:11:41;;;;;;;8.27;2.10;;;15.10;99.90;;;;;;4988774;28;20172;-61
2022/10/16 09:14:30;;;;;;;8.25;2.08;;;15.10;99.90;;;;;;4987721;28;20527;-62
2022/10/16 09:17:19;;;;;;;6.93;2.15;;;15.30;99.90;;;;;;4997515;28;20358;-59
2022/10/16 09:20:17;;;;;;;7.73;2.50;;;15.30;99.90;;;;;;3529803;28;10002661;-62
2022/10/16 09:22:42;;;;;;;;;;;15.40;99.90;;;;;;4983591;28;20414;-61
2022/10/16 09:25:17;;;;;;;10.23;2.50;;;15.40;99.90;;;;;;4979552;28;19925;-59
2022/10/16 09:27:47;;;;;;;8.65;2.17;;;15.50;99.90;;;;;;4975335;28;20133;-60
2022/10/16 09:30:19;;;;;;;7.95;2.38;;;15.60;99.90;;;;;;4972814;28;20043;-60
2022/10/16 09:32:48;;;;;;;9.02;2.25;;;15.70;99.90;;;;;;4991398;28;20221;-62
2022/10/16 09:35:19;;;;;;;14.07;2.88;;;15.80;99.90;;;;;;4976885;28;20243;-60
2022/10/16 09:37:49;;;;;;;8.75;2.13;;;15.90;99.90;;;;;;4976474;28;20057;-58
2022/10/16 09:40:34;;;;;;;9.60;2.33;;;16.00;99.90;;;;;;4972334;28;20046;-60
2022/10/16 09:43:21;;;;;;;8.80;1.70;;;16.20;99.90;;;;;;4978655;28;20038;-60
2022/10/16 09:46:04;;;;;;;7.45;2.03;;;16.10;99.90;;;;;;4975484;28;20061;-62
2022/10/16 09:48:39;;;;;;;9.30;2.25;;;16.20;99.90;;;;;;4958977;28;20038;-61
2022/10/16 09:51:15;;;;;;;11.70;3.08;;;16.20;99.90;;;;;;4977108;28;20073;-63
2022/10/16 09:53:43;;;;;;;13.32;3.35;;;16.10;99.90;;;;;;4977746;28;20038;-61
2022/10/16 09:56:22;;;;;;;11.30;2.20;;;16.10;99.90;;;;;;4977620;28;20042;-60
2022/10/16 09:58:56;;;;;;;9.85;2.20;;;16.00;99.90;;;;;;4975764;28;20038;-61
2022/10/16 10:01:37;;;;;;;13.13;2.53;;;16.00;99.90;;;;;;4979279;28;20449;-59
2022/10/16 10:04:04;;;;;;;13.75;2.83;;;16.10;99.90;;;;;;4976825;28;20160;-60
2022/10/16 10:06:42;;;;;;;6.03;1.80;;;16.20;99.90;;;;;;4979670;28;20034;-59
2022/10/16 10:09:29;;;;;;;10.50;2.45;;;16.20;99.90;;;;;;4978851;28;20125;-62
2022/10/16 10:12:01;;;;;;;7.93;2.28;;;16.30;99.90;;;;;;4983191;28;20037;-61
2022/10/16 10:14:33;;;;;;;13.07;2.80;;;16.40;99.90;;;;;;4981819;28;20130;-62
2022/10/16 10:17:04;;;;;;;8.43;2.17;;;16.60;99.90;;;;;;4982905;28;20049;-62
2022/10/16 10:19:38;;;;;;;12.02;2.58;;;16.80;99.90;;;;;;4999332;28;20457;-62
2022/10/16 10:22:17;;;;;;;14.50;2.03;;;16.80;99.90;;;;;;4980669;28;20041;-60
2022/10/16 10:24:54;;;;;;;8.77;2.15;;;16.80;99.90;;;;;;4970797;28;20485;-62
2022/10/16 10:27:20;;;;;;;11.95;2.33;;;16.80;99.90;;;;;;4972836;28;20035;-61
2022/10/16 10:29:55;;;;;;;15.82;2.63;;;16.70;99.90;;;;;;4975134;28;20077;-61
2022/10/16 10:32:42;;;;;;;12.55;2.00;;;16.60;99.90;;;;;;4976109;28;20042;-62
2022/10/16 10:35:14;;;;;;;8.85;2.65;;;16.50;99.90;;;;;;4972440;28;20057;-61
2022/10/16 10:38:06;;;;;;;14.88;2.17;;;16.40;99.90;;;;;;4985488;28;20394;-60
2022/10/16 10:40:56;;;;;;;14.03;2.97;;;16.30;99.90;;;;;;4272240;28;10000957;-61
2022/10/16 10:43:41;;;;;;;15.63;2.50;;;16.30;99.90;;;;;;4976567;28;20045;-61
2022/10/16 10:46:16;;;;;;;15.70;2.72;;;16.20;99.90;;;;;;4974320;28;20038;-62
2022/10/16 10:49:03;;;;;;;14.30;2.83;;;16.00;99.90;;;;;;4976672;28;20591;-62
2022/10/16 10:51:47;;;;;;;15.23;3.38;;;16.00;99.90;;;;;;4977998;28;20300;-62
2022/10/16 10:54:28;;;;;;;20.35;3.03;;;16.20;99.90;;;;;;4978858;28;20066;-60
2022/10/16 10:57:14;;;;;;;14.52;2.70;;;16.40;99.90;;;;;;4978419;28;20528;-62
2022/10/16 11:00:10;;;;;;;10.82;3.33;;;16.60;99.90;;;;;;4983340;28;20077;-62
2022/10/16 11:02:44;;;;;;;18.98;2.80;;;16.80;99.90;;;;;;4964312;28;20074;-62
2022/10/16 11:05:18;;;;;;;;;;;16.80;99.90;;;;;;4993649;28;20873;-60
2022/10/16 11:11:01;;;;;;;16.10;3.60;;;16.70;99.90;;;;;;5017500;28;20056;-64
2022/10/16 11:13:27;;;;;;;16.95;3.22;;;16.80;99.90;;;;;;5010035;28;20499;-65
2022/10/16 11:15:58;;;;;;;29.73;4.65;;;16.90;99.90;;;;;;5017456;28;20082;-66
2022/10/16 11:18:52;;;;;;;14.93;3.03;;;17.00;99.90;;;;;;5008350;28;20581;-63
2022/10/16 11:21:20;;;;;;;17.30;3.10;;;16.90;99.90;;;;;;5026654;28;20138;-62
2022/10/16 11:23:50;;;;;;;14.43;2.47;;;16.70;99.90;;;;;;5034130;28;20889;-62
2022/10/16 11:26:34;;;;;;;22.08;3.65;;;16.60;99.90;;;;;;5015656;28;20190;-62
2022/10/16 11:29:03;;;;;;;12.48;3.15;;;16.60;99.90;;;;;;5027291;28;20036;-63
2022/10/16 11:31:37;;;;;;;15.27;2.92;;;16.70;99.90;;;;;;5024789;28;20045;-62
2022/10/16 11:34:17;;;;;;;15.80;3.13;;;16.80;99.90;;;;;;5025966;28;20403;-62
2022/10/16 11:37:01;;;;;;;14.80;3.20;;;16.90;99.90;;;;;;5015595;28;20045;-63
2022/10/16 11:39:29;;;;;;;13.27;3.20;;;17.10;99.90;;;;;;5037708;28;20049;-63
2022/10/16 11:42:10;;;;;;;12.07;2.92;;;17.30;99.90;;;;;;5031464;28;20056;-63
2022/10/16 11:45:02;;;;;;;12.63;2.70;;;17.50;99.90;;;;;;5038118;28;20208;-62
2022/10/16 11:47:47;;;;;;;14.57;3.40;;;17.60;99.90;;;;;;5013910;28;20080;-63
2022/10/16 11:50:45;;;;;;;16.90;2.90;;;17.70;99.90;;;;;;5034511;28;20087;-63
2022/10/16 11:53:31;;;;;;;13.68;2.97;;;17.70;99.90;;;;;;5025113;28;20499;-62
2022/10/16 11:55:57;;;;;;;10.55;2.45;;;17.80;99.90;;;;;;5020763;28;20047;-61
2022/10/16 11:58:35;;;;;;;15.07;2.50;;;17.70;99.90;;;;;;5010618;28;20037;-63
2022/10/16 12:01:10;;;;;;;11.35;2.33;;;17.80;99.90;;;;;;5021452;28;20040;-64
2022/10/16 12:03:54;;;;;;;8.75;2.30;;;17.80;99.90;;;;;;5040195;28;20091;-64
2022/10/16 12:06:37;;;;;;;;;;;17.90;99.90;;;;;;5021387;28;20045;-62
2022/10/16 12:09:03;;;;;;;12.20;2.50;;;17.80;99.90;;;;;;5028958;28;19970;-62
2022/10/16 12:11:29;;;;;;;13.35;2.20;;;17.90;99.90;;;;;;5018294;28;20041;-63
2022/10/16 12:14:10;;;;;;;11.45;2.70;;;17.70;99.90;;;;;;5010868;28;20061;-63
2022/10/16 12:16:38;;;;;;;12.85;2.28;;;17.50;99.90;;;;;;5014686;28;20045;-63
2022/10/16 12:19:12;;;;;;;11.77;2.20;;;17.70;99.90;;;;;;5017419;28;20056;-63
2022/10/16 12:21:39;;;;;;;15.05;2.97;;;17.60;99.90;;;;;;5019338;28;20129;-62
2022/10/16 12:24:06;;;;;;;9.73;1.90;;;17.90;99.90;;;;;;5018076;28;20511;-62
2022/10/16 12:26:36;;;;;;;14.25;3.33;;;17.90;99.90;;;;;;5010384;28;20045;-63
2022/10/16 12:29:28;;;;;;;13.13;2.60;;;17.80;99.90;;;;;;5021106;28;20783;-64
2022/10/16 12:31:54;;;;;;;10.57;3.17;;;18.10;99.90;;;;;;5015822;28;20045;-63
2022/10/16 12:34:34;;;;;;;12.68;2.22;;;18.20;99.90;;;;;;5005569;28;20042;-63
2022/10/16 12:37:20;;;;;;;14.10;2.60;;;18.20;99.90;;;;;;5008727;28;20110;-63
2022/10/16 12:39:48;;;;;;;9.18;2.42;;;17.80;99.90;;;;;;5021321;28;20049;-63
2022/10/16 12:42:25;;;;;;;10.52;2.15;;;17.90;99.90;;;;;;5016211;28;20049;-62
2022/10/16 12:44:52;;;;;;;8.93;2.28;;;17.70;99.90;;;;;;5007704;28;20568;-63
2022/10/16 12:47:31;;;;;;;10.13;2.20;;;17.50;99.90;;;;;;4990099;28;20038;-64
2022/10/16 12:49:57;;;;;;;12.32;2.50;;;17.50;99.90;;;;;;5007451;28;20455;-61
2022/10/16 12:52:34;;;;;;;11.38;1.92;;;17.40;99.90;;;;;;5004617;28;20037;-62
2022/10/16 12:55:01;;;;;;;11.75;2.33;;;17.30;99.90;;;;;;5015060;28;20053;-62
2022/10/16 12:57:50;;;;;;;9.32;2.20;;;17.20;99.90;;;;;;5003642;28;20235;-63
2022/10/16 13:00:37;;;;;;;9.90;2.60;;;17.20;99.90;;;;;;5019951;28;20170;-63
2022/10/16 13:03:21;;;;;;;10.77;2.35;;;17.10;99.90;;;;;;5017610;28;20041;-63
2022/10/16 13:06:16;;;;;;;10.95;2.55;;;17.20;99.90;;;;;;5001212;28;20411;-63